This is the latest recevied weather packets stored in our database for station/object EA4IAJ-12. If no packets are shown the sender has not sent any weather packets the latest 10 day(s).
| Time | Temp. | Humidity | Pressure | Rain* | Wind** | Luminosity | Snow |
|---|---|---|---|---|---|---|---|
| 1787751384 | 30.56° C | 36% | 1042.1 hPa | - | - | - | - |
| 1787749583 | 31.11° C | 38% | 1043.9 hPa | - | - | - | - |
| 1787748683 | 33.33° C | 40% | 1053.6 hPa | - | - | - | - |
| 1787747782 | 31.67° C | 41% | 1048.8 hPa | - | - | - | - |
| 1787746881 | 31.11° C | 42% | 1046 hPa | - | - | - | - |
| 1787745981 | 32.22° C | 44% | 1052.3 hPa | - | - | - | - |
| 1787745080 | 32.78° C | 47% | 1054 hPa | - | - | - | - |
| 1787744180 | 33.33° C | 49% | 1056.3 hPa | - | - | - | - |
| 1787743279 | 33.89° C | 52% | 1059.7 hPa | - | - | - | - |
| 1787742379 | 31.67° C | 54% | 1052.4 hPa | - | - | - | - |
| 1787741478 | 31.11° C | 57% | 1049.6 hPa | - | - | - | - |
| 1787740577 | 31.67° C | 61% | 1052.4 hPa | - | - | - | - |
| 1787739747 | 32.78° C | 67% | 1059.7 hPa | - | - | - | - |
| 1787739677 | 32.78° C | 67% | 1059.7 hPa | - | - | - | - |
| 1787738776 | 31.67° C | 73% | 1055.6 hPa | - | - | - | - |
| 1787736987 | 35.56° C | 91% | 1074.5 hPa | - | - | - | - |
| 1787735186 | 32.22° C | 100% | 1063.1 hPa | - | - | - | - |
| 1787733385 | 30° C | 100% | 1053.7 hPa | - | - | - | - |
| 1787731584 | 24.44° C | 100% | 1032.3 hPa | - | - | - | - |
| 1787729783 | 20.56° C | 100% | 1014.1 hPa | - | - | - | - |
| 1787728882 | 19.44° C | 100% | 1009.5 hPa | - | - | - | - |
| 1787727982 | 17.78° C | 100% | 1004.7 hPa | - | - | - | - |
| 1787727081 | 17.78° C | 100% | 1004.1 hPa | - | - | - | - |
| 1787726181 | 17.78° C | 100% | 1003.8 hPa | - | - | - | - |
| 1787725282 | 17.22° C | 100% | 1001.4 hPa | - | - | - | - |
* Rain since midnight (hover to see other rain measurements)
** Current wind speed in m/s (hover to see current wind gust speed)